Key West International Airport Key West US
ICAO: KEYW
IATA: EYW
Category: Medium
Scheduled Services: Yes

Elevation: 3 ft
TransAlt. 18000 ft.

Airport Communications:
NAVY KEY WEST:124.45
ASOS:119.65
ATIS:119.675
CLNC DEL:121.9
CTAF:118.2
MIAMI RDO:122.2
GND:121.9
TWR:118.2
UNICOM:122.95

KEYW Zoom In..

Runways:

(A) RW 09 length 4801 ft width 100 ft
---- / hdg 93

(B) RW 27 length 4801 ft width 100 ft
---- / hdg 273

Location; KEYW
Day. 23 / Time. 07.53 Zulu
* Altimeter: 29.92
* Temperature: 26° c. 78.8°f.
* Wind from: 350° Speed 05 kn.
Dewpoint: 22° c.
Visibility: 4 Statute Miles.
Clouds: Broken 2200 ft.
Clouds: Broken 7000 ft.
Conditions: Light Rain.

KEYW 230753Z AUTO 35005KT 4SM VCTS -RA BKN022 BKN070 26/22 A2992 RMK AO2 PK WND 29027/0738 WSHFT 0653 LTG DSNT E-S TSE07B28E52 SLP133 P0071 T02560222


Wind From 350°
Speed 05 kn.

 
 
jpsmedia.com for Web Design worldairports.se 2018   terms of use